createdAt,value
2023-09-05T00:02:07.854Z,18.67
2023-09-05T00:04:36.787Z,18.67
2023-09-05T00:07:06.630Z,18.65
2023-09-05T00:09:35.239Z,18.64
2023-09-05T00:12:05.686Z,18.63
2023-09-05T00:14:35.514Z,18.60
2023-09-05T00:17:04.058Z,18.58
2023-09-05T00:19:32.667Z,18.56
2023-09-05T00:22:01.441Z,18.53
2023-09-05T00:24:33.031Z,18.51
2023-09-05T00:27:05.228Z,18.45
2023-09-05T00:29:46.515Z,18.40
2023-09-05T00:32:17.969Z,18.33
2023-09-05T00:34:49.299Z,18.28
2023-09-05T00:37:23.537Z,18.24
2023-09-05T00:39:52.408Z,18.20
2023-09-05T00:42:22.611Z,18.17
2023-09-05T00:44:51.370Z,18.15
2023-09-05T00:47:23.489Z,18.12
2023-09-05T00:49:52.070Z,18.09
2023-09-05T00:52:23.334Z,18.08
2023-09-05T00:54:52.155Z,18.05
2023-09-05T00:57:22.827Z,18.03
2023-09-05T00:59:52.039Z,17.98
2023-09-05T01:02:20.611Z,17.96
2023-09-05T01:04:49.234Z,17.92
2023-09-05T01:07:28.814Z,17.87
2023-09-05T01:10:03.977Z,17.84
2023-09-05T01:12:34.599Z,17.82
2023-09-05T01:15:03.243Z,17.78
2023-09-05T01:17:31.831Z,17.74
2023-09-05T01:20:02.876Z,17.71
2023-09-05T01:22:41.276Z,17.69
2023-09-05T01:25:14.431Z,17.66
2023-09-05T01:27:43.317Z,17.62
2023-09-05T01:30:12.672Z,17.59
2023-09-05T01:32:41.349Z,17.56
2023-09-05T01:35:10.432Z,17.55
2023-09-05T01:37:39.050Z,17.52
2023-09-05T01:40:08.903Z,17.50
2023-09-05T01:42:39.599Z,17.48
2023-09-05T01:45:09.006Z,17.46
2023-09-05T01:47:39.239Z,17.45
2023-09-05T01:50:08.743Z,17.42
2023-09-05T01:52:37.480Z,17.41
2023-09-05T01:55:08.116Z,17.40
2023-09-05T01:57:38.072Z,17.38
2023-09-05T02:00:07.725Z,17.37
2023-09-05T02:02:42.274Z,17.33
2023-09-05T02:05:12.066Z,17.32
2023-09-05T02:07:40.597Z,17.30
2023-09-05T02:10:10.241Z,17.27
2023-09-05T02:12:40.163Z,17.24
2023-09-05T02:15:10.595Z,17.22
2023-09-05T02:17:39.337Z,17.19
2023-09-05T02:20:09.473Z,17.17
2023-09-05T02:22:38.022Z,17.15
2023-09-05T02:25:07.261Z,17.12
2023-09-05T02:27:35.775Z,17.10
2023-09-05T02:30:07.410Z,17.08
2023-09-05T02:32:35.987Z,17.06
2023-09-05T02:35:05.154Z,17.07
2023-09-05T02:37:33.842Z,17.06
2023-09-05T02:40:04.609Z,17.05
2023-09-05T02:42:34.204Z,17.05
2023-09-05T02:45:04.347Z,17.06
2023-09-05T02:47:32.727Z,17.04
2023-09-05T02:50:01.066Z,17.04
2023-09-05T02:52:41.647Z,17.04
2023-09-05T02:55:16.299Z,17.00
2023-09-05T02:57:44.912Z,16.99
2023-09-05T03:00:20.597Z,16.99
2023-09-05T03:02:50.869Z,16.98
2023-09-05T03:05:19.624Z,16.98
2023-09-05T03:07:48.569Z,16.96
2023-09-05T03:10:17.481Z,16.95
2023-09-05T03:12:46.059Z,16.93
2023-09-05T03:15:19.549Z,16.93
2023-09-05T03:17:48.482Z,16.88
2023-09-05T03:20:17.222Z,16.85
2023-09-05T03:22:45.895Z,16.83
2023-09-05T03:25:14.424Z,16.80
2023-09-05T03:27:43.061Z,16.78
2023-09-05T03:30:12.624Z,16.76
2023-09-05T03:32:43.354Z,16.74
2023-09-05T03:35:12.038Z,16.72
2023-09-05T03:37:40.581Z,16.69
2023-09-05T03:40:11.644Z,16.68
2023-09-05T03:42:41.631Z,16.66
2023-09-05T03:45:11.185Z,16.65
2023-09-05T03:47:54.335Z,16.65
2023-09-05T03:50:30.291Z,16.62
2023-09-05T03:52:59.923Z,16.61
2023-09-05T03:55:28.680Z,16.60
2023-09-05T03:57:57.453Z,16.59
2023-09-05T04:00:26.046Z,16.57
2023-09-05T04:02:54.627Z,16.58
2023-09-05T04:05:23.956Z,16.58
2023-09-05T04:07:53.853Z,16.58
2023-09-05T04:10:23.634Z,16.56
2023-09-05T04:12:52.718Z,16.57
2023-09-05T04:15:23.187Z,16.57
2023-09-05T04:17:52.958Z,16.54
2023-09-05T04:20:22.012Z,16.52
2023-09-05T04:22:50.684Z,16.49
2023-09-05T04:25:21.852Z,16.48
2023-09-05T04:27:52.987Z,16.46
2023-09-05T04:30:21.751Z,16.42
2023-09-05T04:32:51.705Z,16.42
2023-09-05T04:35:21.999Z,16.40
2023-09-05T04:37:53.875Z,16.38
2023-09-05T04:40:24.374Z,16.36
2023-09-05T04:42:53.566Z,16.35
2023-09-05T04:45:22.122Z,16.35
2023-09-05T04:47:50.691Z,16.35
2023-09-05T04:50:19.236Z,16.34
2023-09-05T04:52:47.767Z,16.34
2023-09-05T04:55:16.377Z,16.31
2023-09-05T04:57:48.444Z,16.30
2023-09-05T05:00:19.142Z,16.28
2023-09-05T05:02:47.888Z,16.25
2023-09-05T05:05:16.457Z,16.23
2023-09-05T05:07:46.344Z,16.23
2023-09-05T05:10:15.049Z,16.22
2023-09-05T05:12:44.983Z,16.22
2023-09-05T05:15:13.561Z,16.22
2023-09-05T05:17:42.134Z,16.19
2023-09-05T05:20:11.730Z,16.13
2023-09-05T05:22:40.404Z,16.12
2023-09-05T05:25:09.500Z,16.12
2023-09-05T05:27:38.032Z,16.15
2023-09-05T05:30:09.804Z,16.19
2023-09-05T05:32:38.419Z,16.22
2023-09-05T05:35:07.937Z,16.28
2023-09-05T05:37:36.722Z,16.33
2023-09-05T05:40:05.987Z,16.39
2023-09-05T05:42:34.548Z,16.44
2023-09-05T05:45:03.415Z,16.55
2023-09-05T05:47:33.545Z,16.62
2023-09-05T05:50:02.137Z,16.66
2023-09-05T05:52:30.875Z,16.73
2023-09-05T05:54:59.506Z,16.77
2023-09-05T05:57:28.072Z,16.82
2023-09-05T05:59:56.619Z,16.86
2023-09-05T06:02:25.209Z,16.93
2023-09-05T06:04:54.813Z,16.97
2023-09-05T06:07:23.509Z,17.02
2023-09-05T06:09:52.160Z,17.08
2023-09-05T06:12:20.769Z,17.13
2023-09-05T06:14:49.386Z,17.19
2023-09-05T06:17:18.067Z,17.24
2023-09-05T06:19:46.695Z,17.31
2023-09-05T06:22:16.456Z,17.40
2023-09-05T06:24:45.078Z,17.45
2023-09-05T06:27:13.677Z,17.52
2023-09-05T06:29:42.300Z,17.57
2023-09-05T06:32:11.008Z,17.63
2023-09-05T06:34:40.791Z,17.68
2023-09-05T06:37:09.720Z,17.74
2023-09-05T06:39:39.717Z,17.81
2023-09-05T06:42:09.337Z,17.89
2023-09-05T06:44:41.983Z,17.98
2023-09-05T06:47:10.419Z,18.09
2023-09-05T06:49:39.037Z,18.41
2023-09-05T06:52:08.047Z,19.38
2023-09-05T06:54:38.164Z,20.65
2023-09-05T06:57:09.205Z,21.85
2023-09-05T06:59:38.054Z,22.87
2023-09-05T07:02:06.856Z,23.75
2023-09-05T07:04:38.203Z,24.46
2023-09-05T07:07:07.014Z,24.87
2023-09-05T07:09:35.916Z,25.23
2023-09-05T07:12:07.525Z,25.39
2023-09-05T07:14:36.434Z,25.28
2023-09-05T07:17:07.381Z,25.23
2023-09-05T07:19:36.420Z,25.23
2023-09-05T07:22:05.288Z,25.16
2023-09-05T07:24:35.140Z,25.13
2023-09-05T07:27:05.702Z,25.10
2023-09-05T07:29:34.547Z,25.11
2023-09-05T07:32:03.633Z,25.19
2023-09-05T07:34:32.318Z,25.27
2023-09-05T07:37:00.628Z,25.46
2023-09-05T07:39:29.347Z,25.71
2023-09-05T07:41:57.964Z,26.01
2023-09-05T07:44:28.286Z,26.29
2023-09-05T07:46:56.983Z,26.58
2023-09-05T07:49:25.572Z,26.94
2023-09-05T07:51:55.255Z,27.27
2023-09-05T07:54:27.019Z,27.55
2023-09-05T07:56:55.694Z,27.79
2023-09-05T07:59:24.861Z,27.98
2023-09-05T08:01:56.946Z,28.32
2023-09-05T08:04:25.702Z,28.56
2023-09-05T08:06:54.381Z,28.80
2023-09-05T08:09:25.769Z,29.08
2023-09-05T08:11:58.104Z,29.38
2023-09-05T08:14:26.803Z,29.66
2023-09-05T08:16:57.351Z,29.90
2023-09-05T08:19:25.971Z,30.12
2023-09-05T08:21:54.637Z,30.30
2023-09-05T08:24:23.297Z,30.40
2023-09-05T08:26:51.890Z,30.53
2023-09-05T08:29:20.733Z,30.80
2023-09-05T08:31:49.436Z,31.23
2023-09-05T08:34:19.498Z,31.57
2023-09-05T08:36:47.864Z,31.92
2023-09-05T08:39:16.437Z,32.14
2023-09-05T08:41:45.205Z,32.10
2023-09-05T08:44:14.033Z,32.14
2023-09-05T08:46:44.191Z,32.41
2023-09-05T08:49:12.940Z,32.81
2023-09-05T08:51:44.552Z,33.16
2023-09-05T08:54:17.576Z,33.41
2023-09-05T08:56:47.493Z,33.35
2023-09-05T08:59:17.763Z,33.51
2023-09-05T09:01:46.488Z,33.73
2023-09-05T09:04:15.402Z,33.96
2023-09-05T09:06:45.725Z,34.06
2023-09-05T09:09:36.875Z,34.23
2023-09-05T09:12:06.428Z,34.36
2023-09-05T09:14:35.680Z,34.42
2023-09-05T09:17:05.835Z,34.57
2023-09-05T09:19:34.519Z,34.78
2023-09-05T09:22:06.872Z,34.98
2023-09-05T09:24:36.425Z,35.19
2023-09-05T09:27:06.917Z,35.21
2023-09-05T09:29:36.253Z,35.19
2023-09-05T09:32:07.694Z,34.86
2023-09-05T09:34:39.588Z,34.82
2023-09-05T09:37:09.494Z,34.98
2023-09-05T09:39:38.116Z,35.29
2023-09-05T09:42:07.230Z,35.51
2023-09-05T09:44:37.582Z,35.76
2023-09-05T09:47:06.481Z,36.06
2023-09-05T09:49:38.097Z,36.14
2023-09-05T09:52:12.438Z,36.00
2023-09-05T09:54:41.450Z,35.67
2023-09-05T09:57:13.898Z,35.23
2023-09-05T09:59:50.470Z,35.39
2023-09-05T10:02:19.581Z,35.36
2023-09-05T10:04:48.984Z,35.34
2023-09-05T10:07:21.797Z,35.33
2023-09-05T10:09:54.063Z,35.21
2023-09-05T10:12:24.776Z,35.27
2023-09-05T10:14:56.018Z,35.30
2023-09-05T10:17:24.685Z,35.60
2023-09-05T10:19:54.217Z,35.91
2023-09-05T10:22:25.969Z,35.99
2023-09-05T10:24:55.538Z,35.93
2023-09-05T10:27:24.225Z,36.15
2023-09-05T10:29:54.800Z,36.52
2023-09-05T10:32:24.237Z,36.75
2023-09-05T10:35:03.571Z,36.89
2023-09-05T10:37:51.474Z,37.19
2023-09-05T10:40:23.501Z,37.30
2023-09-05T10:42:53.405Z,37.27
2023-09-05T10:45:33.879Z,37.32
2023-09-05T10:48:06.112Z,37.57
2023-09-05T10:50:55.072Z,37.73
2023-09-05T10:53:25.878Z,37.92
2023-09-05T10:55:55.742Z,38.00
2023-09-05T10:58:43.647Z,38.11
2023-09-05T11:01:47.142Z,38.28
2023-09-05T11:04:35.519Z,38.27
2023-09-05T11:07:11.156Z,38.45
2023-09-05T11:09:55.713Z,38.13
2023-09-05T11:12:25.976Z,38.12
2023-09-05T11:14:56.039Z,38.37
2023-09-05T11:17:25.630Z,38.57
2023-09-05T11:19:54.490Z,38.76
2023-09-05T11:22:25.748Z,38.71
2023-09-05T11:24:59.497Z,38.86
2023-09-05T11:27:30.832Z,39.09
2023-09-05T11:30:01.784Z,39.34
2023-09-05T11:32:32.608Z,39.50
2023-09-05T11:35:02.331Z,39.58
2023-09-05T11:37:31.354Z,39.69
2023-09-05T11:40:12.420Z,39.92
2023-09-05T11:42:41.290Z,40.15
2023-09-05T11:45:19.492Z,40.06
2023-09-05T11:47:49.490Z,40.31
2023-09-05T11:50:19.620Z,40.43
2023-09-05T11:52:52.439Z,40.45
2023-09-05T11:55:24.748Z,40.32
2023-09-05T11:57:55.065Z,40.37
2023-09-05T12:00:24.545Z,40.36
2023-09-05T12:02:53.979Z,40.52
2023-09-05T12:05:23.222Z,40.53
2023-09-05T12:07:52.601Z,40.54
2023-09-05T12:10:24.409Z,40.66
2023-09-05T12:12:57.398Z,40.67
2023-09-05T12:15:36.765Z,40.79
2023-09-05T12:18:08.239Z,40.96
2023-09-05T12:20:37.786Z,41.03
2023-09-05T12:23:07.409Z,41.16
2023-09-05T12:25:50.684Z,41.28
2023-09-05T12:28:28.498Z,41.51
2023-09-05T12:31:08.278Z,41.65
2023-09-05T12:33:37.168Z,41.74
2023-09-05T12:36:05.980Z,41.77
2023-09-05T12:38:34.443Z,41.83
2023-09-05T12:41:04.303Z,41.94
2023-09-05T12:43:32.957Z,42.02
2023-09-05T12:46:01.645Z,41.84
2023-09-05T12:48:30.311Z,41.88
2023-09-05T12:50:59.168Z,41.98
2023-09-05T12:53:29.078Z,41.97
2023-09-05T12:55:58.450Z,42.12
2023-09-05T12:58:31.294Z,42.28
2023-09-05T13:01:00.815Z,42.45
2023-09-05T13:03:31.461Z,42.69
2023-09-05T13:06:00.302Z,42.89
2023-09-05T13:08:29.227Z,43.20
2023-09-05T13:10:57.997Z,43.41
2023-09-05T13:13:27.848Z,43.60
2023-09-05T13:15:56.536Z,43.83
2023-09-05T13:18:25.720Z,43.91
2023-09-05T13:20:54.366Z,43.94
2023-09-05T13:23:23.067Z,44.07
2023-09-05T13:25:51.761Z,44.28
2023-09-05T13:28:20.171Z,44.45
2023-09-05T13:30:49.888Z,44.50
2023-09-05T13:33:18.301Z,44.18
2023-09-05T13:35:46.693Z,44.33
2023-09-05T13:38:15.337Z,44.55
2023-09-05T13:40:43.789Z,44.74
2023-09-05T13:43:12.116Z,44.80
2023-09-05T13:45:41.093Z,45.11
2023-09-05T13:48:11.362Z,45.36
2023-09-05T13:50:40.101Z,45.47
2023-09-05T13:53:09.460Z,45.52
2023-09-05T13:55:38.158Z,45.72
2023-09-05T13:58:07.322Z,45.88
2023-09-05T14:00:36.029Z,45.95
2023-09-05T14:03:05.318Z,45.49
2023-09-05T14:05:36.325Z,45.25
2023-09-05T14:08:05.346Z,45.12
2023-09-05T14:10:34.301Z,45.22
2023-09-05T14:13:02.959Z,45.43
2023-09-05T14:15:31.669Z,45.39
2023-09-05T14:18:00.389Z,45.33
2023-09-05T14:20:29.541Z,45.37
2023-09-05T14:22:59.402Z,44.99
2023-09-05T14:25:28.203Z,45.07
2023-09-05T14:27:57.102Z,45.25
2023-09-05T14:30:25.940Z,45.39
2023-09-05T14:32:55.447Z,45.51
2023-09-05T14:35:24.434Z,45.63
2023-09-05T14:37:53.194Z,45.61
2023-09-05T14:40:24.904Z,45.59
2023-09-05T14:42:53.538Z,45.63
2023-09-05T14:45:22.448Z,45.73
2023-09-05T14:47:52.687Z,45.85
2023-09-05T14:50:22.710Z,45.90
2023-09-05T14:52:56.654Z,45.65
2023-09-05T14:55:26.920Z,45.56
2023-09-05T14:57:55.859Z,45.54
2023-09-05T15:00:24.911Z,45.42
2023-09-05T15:02:53.515Z,45.29
2023-09-05T15:05:22.321Z,45.12
2023-09-05T15:07:51.337Z,44.97
2023-09-05T15:10:19.858Z,44.79
2023-09-05T15:12:49.690Z,44.57
2023-09-05T15:15:18.362Z,44.61
2023-09-05T15:17:47.097Z,44.72
2023-09-05T15:20:17.013Z,44.78
2023-09-05T15:22:45.686Z,44.56
2023-09-05T15:25:16.180Z,44.15
2023-09-05T15:27:45.923Z,43.90
2023-09-05T15:30:17.635Z,43.45
2023-09-05T15:32:47.155Z,42.69
2023-09-05T15:35:16.460Z,41.51
2023-09-05T15:37:45.227Z,40.43
2023-09-05T15:40:14.951Z,39.42
2023-09-05T15:42:44.192Z,38.58
2023-09-05T15:45:13.382Z,38.10
2023-09-05T15:47:44.197Z,37.85
2023-09-05T15:50:13.001Z,37.64
2023-09-05T15:52:41.652Z,37.72
2023-09-05T15:55:11.077Z,37.88
2023-09-05T15:57:40.929Z,38.20
2023-09-05T16:00:11.245Z,38.46
2023-09-05T16:02:46.427Z,38.19
2023-09-05T16:05:15.288Z,37.59
2023-09-05T16:07:44.394Z,36.97
2023-09-05T16:10:13.976Z,36.32
2023-09-05T16:12:43.164Z,35.78
2023-09-05T16:15:13.163Z,35.37
2023-09-05T16:17:41.846Z,34.91
2023-09-05T16:20:12.700Z,34.56
2023-09-05T16:22:41.328Z,34.29
2023-09-05T16:25:11.755Z,34.12
2023-09-05T16:27:40.295Z,34.05
2023-09-05T16:30:10.327Z,34.42
2023-09-05T16:32:39.059Z,34.90
2023-09-05T16:35:08.240Z,35.49
2023-09-05T16:37:38.410Z,35.84
2023-09-05T16:40:07.963Z,36.13
2023-09-05T16:42:36.644Z,36.41
2023-09-05T16:45:07.584Z,36.60
2023-09-05T16:47:36.420Z,36.83
2023-09-05T16:50:05.606Z,36.94
2023-09-05T16:52:34.358Z,36.97
2023-09-05T16:55:04.493Z,36.90
2023-09-05T16:57:33.225Z,36.86
2023-09-05T17:00:01.820Z,36.82
2023-09-05T17:02:30.282Z,36.72
2023-09-05T17:04:58.630Z,36.55
2023-09-05T17:07:27.279Z,36.42
2023-09-05T17:09:55.970Z,36.34
2023-09-05T17:12:26.268Z,36.24
2023-09-05T17:14:54.905Z,36.08
2023-09-05T17:17:23.591Z,35.77
2023-09-05T17:19:52.232Z,35.52
2023-09-05T17:22:21.142Z,35.26
2023-09-05T17:24:51.160Z,34.80
2023-09-05T17:27:19.866Z,34.41
2023-09-05T17:29:50.042Z,34.04
2023-09-05T17:32:18.695Z,33.55
2023-09-05T17:34:47.396Z,32.89
2023-09-05T17:37:16.201Z,32.22
2023-09-05T17:39:44.949Z,31.60
2023-09-05T17:42:13.654Z,31.02
2023-09-05T17:44:42.662Z,30.53
2023-09-05T17:47:12.741Z,30.10
2023-09-05T17:49:41.835Z,29.68
2023-09-05T17:52:10.495Z,29.34
2023-09-05T17:54:39.718Z,29.02
2023-09-05T17:57:08.086Z,28.75
2023-09-05T17:59:37.001Z,28.48
2023-09-05T18:02:05.911Z,28.24
2023-09-05T18:04:36.147Z,28.04
2023-09-05T18:07:05.556Z,27.85
2023-09-05T18:09:34.221Z,27.65
2023-09-05T18:12:02.933Z,27.47
2023-09-05T18:14:31.670Z,27.31
2023-09-05T18:17:00.320Z,27.16
2023-09-05T18:19:29.193Z,27.02
2023-09-05T18:21:59.322Z,26.90
2023-09-05T18:24:28.024Z,26.77
2023-09-05T18:26:56.634Z,26.64
2023-09-05T18:29:26.452Z,26.55
2023-09-05T18:31:55.157Z,26.44
2023-09-05T18:34:41.417Z,26.33
2023-09-05T18:37:12.049Z,26.27
2023-09-05T18:39:41.020Z,26.16
2023-09-05T18:42:12.445Z,26.07
2023-09-05T18:44:42.715Z,26.01
2023-09-05T18:47:11.590Z,25.91
2023-09-05T18:49:41.738Z,25.84
2023-09-05T18:52:12.701Z,25.76
2023-09-05T18:54:42.643Z,25.67
2023-09-05T18:57:12.350Z,25.60
2023-09-05T18:59:41.104Z,25.50
2023-09-05T19:02:11.989Z,25.45
2023-09-05T19:04:40.792Z,25.36
2023-09-05T19:07:10.639Z,25.28
2023-09-05T19:09:40.788Z,25.20
2023-09-05T19:12:11.804Z,25.15
2023-09-05T19:14:40.513Z,25.08
2023-09-05T19:17:09.175Z,24.99
2023-09-05T19:19:38.298Z,24.92
2023-09-05T19:22:08.172Z,24.83
2023-09-05T19:24:38.056Z,24.77
2023-09-05T19:27:07.344Z,24.69
2023-09-05T19:29:35.682Z,24.58
2023-09-05T19:32:04.433Z,24.48
2023-09-05T19:34:33.358Z,24.37
2023-09-05T19:37:02.091Z,24.28
2023-09-05T19:39:30.826Z,24.20
2023-09-05T19:42:00.866Z,24.14
2023-09-05T19:44:29.543Z,24.07
2023-09-05T19:46:58.176Z,24.01
2023-09-05T19:49:26.903Z,23.95
2023-09-05T19:51:55.595Z,23.89
2023-09-05T19:54:24.356Z,23.83
2023-09-05T19:56:53.056Z,23.79
2023-09-05T19:59:23.488Z,23.74
2023-09-05T20:01:52.699Z,23.69
2023-09-05T20:04:21.279Z,23.62
2023-09-05T20:06:50.234Z,23.57
2023-09-05T20:09:18.979Z,23.54
2023-09-05T20:11:47.395Z,23.49
2023-09-05T20:14:16.116Z,23.44
2023-09-05T20:16:46.124Z,23.39
2023-09-05T20:19:14.818Z,23.33
2023-09-05T20:21:43.860Z,23.27
2023-09-05T20:24:12.222Z,23.20
2023-09-05T20:26:40.870Z,23.15
2023-09-05T20:29:09.704Z,23.07
2023-09-05T20:31:38.420Z,23.01
2023-09-05T20:34:08.694Z,22.96
2023-09-05T20:36:37.381Z,22.88
2023-09-05T20:39:06.917Z,22.83
2023-09-05T20:41:35.717Z,22.75
2023-09-05T20:44:07.669Z,22.68
2023-09-05T20:46:36.454Z,22.62
2023-09-05T20:49:05.609Z,22.55
2023-09-05T20:51:35.992Z,22.50
2023-09-05T20:54:06.022Z,22.42
2023-09-05T20:56:34.778Z,22.33
2023-09-05T20:59:03.744Z,22.25
2023-09-05T21:01:32.514Z,22.20
2023-09-05T21:04:01.457Z,22.13
2023-09-05T21:06:30.393Z,22.06
2023-09-05T21:09:00.386Z,22.00
2023-09-05T21:11:29.135Z,21.93
2023-09-05T21:13:57.891Z,21.86
2023-09-05T21:16:26.558Z,21.81
2023-09-05T21:18:58.648Z,21.74
2023-09-05T21:21:27.271Z,21.68
2023-09-05T21:23:55.675Z,21.64
2023-09-05T21:26:25.834Z,21.60
2023-09-05T21:28:54.516Z,21.55
2023-09-05T21:31:23.243Z,21.51
2023-09-05T21:33:52.039Z,21.48
2023-09-05T21:36:20.540Z,21.43
2023-09-05T21:38:49.162Z,21.39
2023-09-05T21:41:17.790Z,21.37
2023-09-05T21:43:47.750Z,21.34
2023-09-05T21:46:16.392Z,21.31
2023-09-05T21:48:45.927Z,21.31
2023-09-05T21:51:14.604Z,21.31
2023-09-05T21:53:43.187Z,21.30
2023-09-05T21:56:11.805Z,21.30
2023-09-05T21:58:40.473Z,21.29
2023-09-05T22:01:10.420Z,21.28
2023-09-05T22:03:39.557Z,21.26
2023-09-05T22:06:08.343Z,21.23
2023-09-05T22:11:49.347Z,21.12
2023-09-05T22:14:18.169Z,21.06
2023-09-05T22:20:00.713Z,20.91
2023-09-05T22:22:29.328Z,20.83
2023-09-05T22:24:57.910Z,20.79
2023-09-05T22:27:27.032Z,20.73
2023-09-05T22:29:55.817Z,20.67
2023-09-05T22:32:24.505Z,20.59
2023-09-05T22:34:53.051Z,20.50
2023-09-05T22:37:23.838Z,20.44
2023-09-05T22:39:52.504Z,20.37
2023-09-05T22:42:21.204Z,20.30
2023-09-05T22:44:49.855Z,20.26
2023-09-05T22:47:18.482Z,20.19
2023-09-05T22:49:47.070Z,20.15
2023-09-05T22:52:16.430Z,20.09
2023-09-05T22:54:46.645Z,20.04
2023-09-05T22:57:15.189Z,19.98
2023-09-05T22:59:43.720Z,19.92
2023-09-05T23:02:12.588Z,19.88
2023-09-05T23:04:41.207Z,19.83
2023-09-05T23:07:09.779Z,19.79
2023-09-05T23:09:38.625Z,19.74
2023-09-05T23:12:09.105Z,19.70
2023-09-05T23:14:37.684Z,19.64
2023-09-05T23:17:06.419Z,19.60
2023-09-05T23:19:35.031Z,19.55
2023-09-05T23:22:04.323Z,19.49
2023-09-05T23:24:34.516Z,19.45
2023-09-05T23:27:03.208Z,19.39
2023-09-05T23:29:33.596Z,19.34
2023-09-05T23:32:02.178Z,19.29
2023-09-05T23:34:33.596Z,19.26
2023-09-05T23:37:02.184Z,19.20
2023-09-05T23:39:30.834Z,19.18
2023-09-05T23:41:59.499Z,19.12
2023-09-05T23:44:28.095Z,19.08
2023-09-05T23:46:58.065Z,19.05
2023-09-05T23:49:26.794Z,19.01
2023-09-05T23:51:55.721Z,18.98
2023-09-05T23:54:24.333Z,18.93
2023-09-05T23:56:52.891Z,18.88
2023-09-05T23:59:21.969Z,18.85
